Terminal Aerodrome Forecast
Issued by NWS Charleston, WV

Current Version | Previous Version | Text Only | Print | Product List | Glossary Off
Versions: 1 2 3 4 5 6 7 8 9 10 11 12 13 14 15 16 17 18 19 20 21 22 23 24 25 26 27 28 29 30 31 32 33 34 35 36 37 38

546
FTUS41 KRLX 281139
TAFHTS
TAF
KHTS 281139Z 2812/2912 23003KT 6SM SHRA VCTS SCT030 OVC050CB
     FM281300 22003KT P6SM VCSH OVC070
     FM281500 25004KT 3SM TSRA HZ OVC025CB
     FM290100 00000KT 6SM +TSRA BR OVC040CB
     FM290500 VRB03KT P6SM BKN200=

USA.gov is the U.S. government's official web portal to all federal, state and local government web resources and services.